»·PEaware :: N46AN KBFL-KMHV

N46AN :: KBFL-KMHV

FLIGHT INFORMATION

Flight Status: Arrived
Operator: Privately registered:
United States
More flights under this callsign
Pilot: Carson T. (20437)
Aircraft: CESSNA 172 SKYHAWK
(C172)
More flights by this aircraft type
Origin: KBFL Meadows
United States
Destination: KMHV Mojave
United States
More flights between these airports :: More routes between these airports
Route:
File this flight plan on PilotEdge
Remarks:
Altitude:
(Current/Filed)
7,500ft
Speed:
(Current/Filed)
120kts
Departed: 15-Sep-18 10:28 AM
Arrived: 15-Sep-18 11:00 AM
Distance/Time
Traveled:
50nm/0:32
Distance/Time
To Go:
Arrived

Flight Plot

Page will automatically refresh every two minutes.


Map Options




Map Legend


Flown Route
Filed Route
Departure Airport
Arrival Airport
Navaid (VOR, NDB)
Fix

Horizontal Profiles

Position Reports

Time Latitude Longitude Heading Altitude Ground
Speed
15-Sep-18 10:11 35.433557 -119.050432 45 510ft 0kts
15-Sep-18 10:12 35.433557 -119.050432 45 510ft 0kts
15-Sep-18 10:13 35.433557 -119.050432 45 510ft 0kts
15-Sep-18 10:14 35.433557 -119.050432 45 510ft 0kts
15-Sep-18 10:15 35.433557 -119.050432 45 510ft 0kts
15-Sep-18 10:16 35.433557 -119.050432 45 510ft 0kts
15-Sep-18 10:17 35.433557 -119.050432 45 510ft 0kts
15-Sep-18 10:18 35.433557 -119.050432 45 510ft 0kts
15-Sep-18 10:19 35.433557 -119.050432 45 510ft 0kts
15-Sep-18 10:20 35.433557 -119.050432 45 510ft 0kts
15-Sep-18 10:21 35.433243 -119.050769 188 510ft 6kts
15-Sep-18 10:22 35.432397 -119.051023 224 510ft 0kts
15-Sep-18 10:23 35.432047 -119.051392 196 510ft 9kts
15-Sep-18 10:24 35.430644 -119.049932 135 510ft 5kts
15-Sep-18 10:25 35.428421 -119.047283 135 510ft 9kts
15-Sep-18 10:26 35.426404 -119.045116 214 510ft 7kts
15-Sep-18 10:27 35.425964 -119.045730 231 510ft 0kts
15-Sep-18 10:28 35.425964 -119.045730 231 510ft 0kts
15-Sep-18 10:29 35.425789 -119.046449 317 510ft 5kts
15-Sep-18 10:30 35.438835 -119.062160 311 771ft 86kts
15-Sep-18 10:31 35.455686 -119.066272 46 1309ft 90kts
15-Sep-18 10:32 35.441437 -119.042845 141 1817ft 100kts
15-Sep-18 10:33 35.419287 -119.019759 140 2222ft 107kts
15-Sep-18 10:34 35.402102 -118.990778 116 2652ft 104kts
15-Sep-18 10:35 35.389420 -118.959126 117 3096ft 103kts
15-Sep-18 10:36 35.376306 -118.928708 118 3629ft 93kts
15-Sep-18 10:37 35.364224 -118.902417 119 4219ft 88kts
15-Sep-18 10:38 35.350752 -118.876397 121 4717ft 91kts
15-Sep-18 10:39 35.336548 -118.852023 129 5244ft 90kts
15-Sep-18 10:40 35.319949 -118.827144 124 5594ft 103kts
15-Sep-18 10:41 35.304472 -118.791906 115 5560ft 127kts
15-Sep-18 10:42 35.288686 -118.752773 113 5572ft 126kts
15-Sep-18 10:43 35.273393 -118.713623 114 5584ft 127kts
15-Sep-18 10:44 35.257897 -118.674298 115 5562ft 130kts
15-Sep-18 10:45 35.241707 -118.635080 115 5576ft 127kts
15-Sep-18 10:46 35.225321 -118.596199 117 5552ft 129kts
15-Sep-18 10:47 35.207789 -118.558264 118 5616ft 124kts
15-Sep-18 10:48 35.189742 -118.521424 121 5636ft 127kts
15-Sep-18 10:49 35.173536 -118.484782 115 5631ft 129kts
15-Sep-18 10:50 35.157270 -118.445673 116 5623ft 129kts
15-Sep-18 10:51 35.139655 -118.407394 119 5609ft 129kts
15-Sep-18 10:52 35.122253 -118.368776 117 5601ft 129kts
15-Sep-18 10:53 35.105397 -118.330029 113 5523ft 120kts
15-Sep-18 10:54 35.095915 -118.297892 108 5482ft 99kts
15-Sep-18 10:55 35.097806 -118.266752 56 5388ft 93kts
15-Sep-18 10:56 35.095325 -118.234004 109 5206ft 107kts
15-Sep-18 10:57 35.082891 -118.200120 109 4593ft 106kts
15-Sep-18 10:58 35.075318 -118.166829 103 3953ft 99kts
15-Sep-18 10:59 35.071100 -118.134690 93 3779ft 99kts
15-Sep-18 11:00 35.062324 -118.110352 186 3560ft 79kts
15-Sep-18 11:01 35.059076 -118.131685 270 2996ft 66kts
15-Sep-18 11:02 35.059175 -118.150100 270 2794ft 18kts
15-Sep-18 11:03 35.058652 -118.150044 139 2794ft 0kts
15-Sep-18 11:04 35.057782 -118.149032 134 2794ft 9kts
15-Sep-18 11:05 35.054608 -118.145077 134 2794ft 10kts
15-Sep-18 11:06 35.052601 -118.144707 233 2794ft 3kts
15-Sep-18 11:07 35.052653 -118.144839 312 2794ft 0kts
15-Sep-18 11:08 35.052653 -118.144840 312 2794ft 0kts
15-Sep-18 11:09 35.052654 -118.144840 312 2794ft 0kts
15-Sep-18 11:10 35.052654 -118.144840 312 2794ft 0kts
15-Sep-18 11:11 35.052654 -118.144840 312 2794ft 0kts
15-Sep-18 11:12 35.052654 -118.144841 312 2794ft 0kts

Navigation Log

Ident Type
1. KBFL Airport
2. KMHV Airport